Tomkins Cove, New York
Current Conditions -  °F | °C
As of 1:45 AM on Friday 19 Dec 2014 (Local Time) from KSWF Reporting Station
Overcast Overcast  
Wind Chill: 24°   Ceiling: 4000
Heat Index: 34°   Visibility: 10mi
Dew Point: 27°   Wind: 14mph
Humidity: 75%   Direction: 300°WNW
Pressure: 29.96"   Gusts: NA
Location:  41.26°N, 73.98°W
Report Text: KSWF 190645Z 30012KT 10SM OVC040 01/M03 A2996
Loading
Personal Weather Stations






























Interactive Weather Map New forecast layout! Learn more

10-Day Weather Forecast

Advertisements
Track Severe Weather on mobile